sensor_id;sensor_type;location;lat;lon;timestamp;P1;durP1;ratioP1;P2;durP2;ratioP2
10335;SDS011;5213;53.548;9.930;2024-02-15T00:00:36;20.27;;;13.98;;
10335;SDS011;5213;53.548;9.930;2024-02-15T00:03:05;21.50;;;14.30;;
10335;SDS011;5213;53.548;9.930;2024-02-15T00:06:08;20.40;;;13.77;;
10335;SDS011;5213;53.548;9.930;2024-02-15T00:08:34;21.38;;;13.90;;
10335;SDS011;5213;53.548;9.930;2024-02-15T00:10:59;22.30;;;14.30;;
10335;SDS011;5213;53.548;9.930;2024-02-15T00:13:25;22.98;;;14.88;;
10335;SDS011;5213;53.548;9.930;2024-02-15T00:16:02;24.67;;;15.07;;
10335;SDS011;5213;53.548;9.930;2024-02-15T00:18:28;21.55;;;14.63;;
10335;SDS011;5213;53.548;9.930;2024-02-15T00:20:53;22.45;;;14.77;;
10335;SDS011;5213;53.548;9.930;2024-02-15T00:23:19;22.92;;;16.67;;
10335;SDS011;5213;53.548;9.930;2024-02-15T00:25:45;26.42;;;16.60;;
10335;SDS011;5213;53.548;9.930;2024-02-15T00:28:11;22.90;;;15.85;;
10335;SDS011;5213;53.548;9.930;2024-02-15T00:30:37;23.58;;;16.25;;
10335;SDS011;5213;53.548;9.930;2024-02-15T00:33:03;24.92;;;17.55;;
10335;SDS011;5213;53.548;9.930;2024-02-15T00:35:29;25.23;;;17.65;;
10335;SDS011;5213;53.548;9.930;2024-02-15T00:37:55;26.52;;;17.95;;
10335;SDS011;5213;53.548;9.930;2024-02-15T00:40:20;28.13;;;19.25;;
10335;SDS011;5213;53.548;9.930;2024-02-15T00:42:46;26.98;;;19.05;;
10335;SDS011;5213;53.548;9.930;2024-02-15T00:45:11;26.20;;;18.67;;
10335;SDS011;5213;53.548;9.930;2024-02-15T00:47:37;24.58;;;18.55;;
10335;SDS011;5213;53.548;9.930;2024-02-15T00:50:03;27.75;;;18.42;;
10335;SDS011;5213;53.548;9.930;2024-02-15T00:52:29;26.10;;;18.40;;
10335;SDS011;5213;53.548;9.930;2024-02-15T00:54:56;26.92;;;18.90;;
10335;SDS011;5213;53.548;9.930;2024-02-15T00:57:21;24.45;;;18.35;;
10335;SDS011;5213;53.548;9.930;2024-02-15T00:59:47;25.70;;;18.70;;
10335;SDS011;5213;53.548;9.930;2024-02-15T01:02:13;25.92;;;18.27;;
10335;SDS011;5213;53.548;9.930;2024-02-15T01:04:39;23.27;;;17.70;;
10335;SDS011;5213;53.548;9.930;2024-02-15T01:07:04;23.60;;;17.92;;
10335;SDS011;5213;53.548;9.930;2024-02-15T01:09:30;26.13;;;19.13;;
10335;SDS011;5213;53.548;9.930;2024-02-15T01:11:55;26.15;;;18.63;;
10335;SDS011;5213;53.548;9.930;2024-02-15T01:14:21;25.33;;;19.05;;
10335;SDS011;5213;53.548;9.930;2024-02-15T01:16:47;26.45;;;18.75;;
10335;SDS011;5213;53.548;9.930;2024-02-15T01:19:13;26.88;;;18.65;;
10335;SDS011;5213;53.548;9.930;2024-02-15T01:21:38;25.67;;;19.10;;
10335;SDS011;5213;53.548;9.930;2024-02-15T01:24:04;27.70;;;19.42;;
10335;SDS011;5213;53.548;9.930;2024-02-15T01:26:31;23.42;;;18.02;;
10335;SDS011;5213;53.548;9.930;2024-02-15T01:28:57;26.88;;;19.25;;
10335;SDS011;5213;53.548;9.930;2024-02-15T01:31:23;26.30;;;18.73;;
10335;SDS011;5213;53.548;9.930;2024-02-15T01:33:48;26.77;;;18.58;;
10335;SDS011;5213;53.548;9.930;2024-02-15T01:36:14;27.33;;;18.23;;
10335;SDS011;5213;53.548;9.930;2024-02-15T01:38:41;26.08;;;17.58;;
10335;SDS011;5213;53.548;9.930;2024-02-15T01:41:07;25.58;;;17.83;;
10335;SDS011;5213;53.548;9.930;2024-02-15T01:43:33;23.90;;;17.98;;
10335;SDS011;5213;53.548;9.930;2024-02-15T01:45:59;24.15;;;17.48;;
10335;SDS011;5213;53.548;9.930;2024-02-15T01:48:29;22.25;;;16.33;;
10335;SDS011;5213;53.548;9.930;2024-02-15T01:50:55;25.05;;;17.30;;
10335;SDS011;5213;53.548;9.930;2024-02-15T01:53:23;26.63;;;17.75;;
10335;SDS011;5213;53.548;9.930;2024-02-15T01:55:50;23.05;;;17.58;;
10335;SDS011;5213;53.548;9.930;2024-02-15T01:58:18;24.33;;;17.45;;
10335;SDS011;5213;53.548;9.930;2024-02-15T02:00:44;24.30;;;18.00;;
10335;SDS011;5213;53.548;9.930;2024-02-15T02:03:10;25.42;;;17.38;;
10335;SDS011;5213;53.548;9.930;2024-02-15T02:05:39;23.52;;;18.15;;
10335;SDS011;5213;53.548;9.930;2024-02-15T02:08:06;25.67;;;18.67;;
10335;SDS011;5213;53.548;9.930;2024-02-15T02:10:34;24.35;;;16.77;;
10335;SDS011;5213;53.548;9.930;2024-02-15T02:13:02;26.50;;;18.55;;
10335;SDS011;5213;53.548;9.930;2024-02-15T02:15:27;25.50;;;18.27;;
10335;SDS011;5213;53.548;9.930;2024-02-15T02:17:56;27.17;;;19.83;;
10335;SDS011;5213;53.548;9.930;2024-02-15T02:20:23;28.75;;;18.90;;
10335;SDS011;5213;53.548;9.930;2024-02-15T02:22:50;29.33;;;20.80;;
10335;SDS011;5213;53.548;9.930;2024-02-15T02:25:21;28.70;;;19.67;;
10335;SDS011;5213;53.548;9.930;2024-02-15T02:27:51;29.38;;;19.33;;
10335;SDS011;5213;53.548;9.930;2024-02-15T02:30:17;27.45;;;20.33;;
10335;SDS011;5213;53.548;9.930;2024-02-15T02:32:44;27.38;;;19.55;;
10335;SDS011;5213;53.548;9.930;2024-02-15T02:35:11;27.50;;;20.05;;
10335;SDS011;5213;53.548;9.930;2024-02-15T02:37:40;26.30;;;18.60;;
10335;SDS011;5213;53.548;9.930;2024-02-15T02:40:07;27.77;;;20.27;;
10335;SDS011;5213;53.548;9.930;2024-02-15T02:42:46;27.73;;;18.70;;
10335;SDS011;5213;53.548;9.930;2024-02-15T02:45:16;27.17;;;18.38;;
10335;SDS011;5213;53.548;9.930;2024-02-15T02:47:42;26.30;;;19.58;;
10335;SDS011;5213;53.548;9.930;2024-02-15T02:50:07;27.95;;;19.33;;
10335;SDS011;5213;53.548;9.930;2024-02-15T02:52:33;28.50;;;18.65;;
10335;SDS011;5213;53.548;9.930;2024-02-15T02:54:59;30.05;;;20.17;;
10335;SDS011;5213;53.548;9.930;2024-02-15T02:57:24;29.25;;;19.10;;
10335;SDS011;5213;53.548;9.930;2024-02-15T02:59:51;27.55;;;19.55;;
10335;SDS011;5213;53.548;9.930;2024-02-15T03:02:16;27.30;;;19.15;;
10335;SDS011;5213;53.548;9.930;2024-02-15T03:04:42;27.38;;;17.60;;
10335;SDS011;5213;53.548;9.930;2024-02-15T03:07:08;25.63;;;17.85;;
10335;SDS011;5213;53.548;9.930;2024-02-15T03:09:34;25.35;;;16.35;;
10335;SDS011;5213;53.548;9.930;2024-02-15T03:12:02;23.38;;;16.83;;
10335;SDS011;5213;53.548;9.930;2024-02-15T03:14:28;25.58;;;16.40;;
10335;SDS011;5213;53.548;9.930;2024-02-15T03:16:55;22.02;;;15.20;;
10335;SDS011;5213;53.548;9.930;2024-02-15T03:19:21;20.02;;;15.23;;
10335;SDS011;5213;53.548;9.930;2024-02-15T03:21:47;21.75;;;15.20;;
10335;SDS011;5213;53.548;9.930;2024-02-15T03:24:13;20.90;;;14.93;;
10335;SDS011;5213;53.548;9.930;2024-02-15T03:26:39;20.73;;;14.57;;
10335;SDS011;5213;53.548;9.930;2024-02-15T03:29:05;22.05;;;15.02;;
10335;SDS011;5213;53.548;9.930;2024-02-15T03:31:33;20.77;;;14.10;;
10335;SDS011;5213;53.548;9.930;2024-02-15T03:34:02;21.17;;;14.30;;
10335;SDS011;5213;53.548;9.930;2024-02-15T03:36:28;22.33;;;14.60;;
10335;SDS011;5213;53.548;9.930;2024-02-15T03:38:54;23.20;;;14.85;;
10335;SDS011;5213;53.548;9.930;2024-02-15T03:41:21;21.08;;;14.35;;
10335;SDS011;5213;53.548;9.930;2024-02-15T03:43:47;21.17;;;14.32;;
10335;SDS011;5213;53.548;9.930;2024-02-15T03:46:13;21.98;;;15.52;;
10335;SDS011;5213;53.548;9.930;2024-02-15T03:48:39;24.05;;;15.93;;
10335;SDS011;5213;53.548;9.930;2024-02-15T03:51:09;23.05;;;15.88;;
10335;SDS011;5213;53.548;9.930;2024-02-15T03:53:34;23.88;;;16.60;;
10335;SDS011;5213;53.548;9.930;2024-02-15T03:56:02;25.42;;;15.68;;
10335;SDS011;5213;53.548;9.930;2024-02-15T03:58:28;27.17;;;16.88;;
10335;SDS011;5213;53.548;9.930;2024-02-15T04:00:57;26.00;;;16.80;;
10335;SDS011;5213;53.548;9.930;2024-02-15T04:03:23;26.85;;;16.98;;
10335;SDS011;5213;53.548;9.930;2024-02-15T04:05:49;28.52;;;18.40;;
10335;SDS011;5213;53.548;9.930;2024-02-15T04:08:15;29.85;;;17.38;;
10335;SDS011;5213;53.548;9.930;2024-02-15T04:10:41;26.00;;;17.90;;
10335;SDS011;5213;53.548;9.930;2024-02-15T04:13:07;27.80;;;17.08;;
10335;SDS011;5213;53.548;9.930;2024-02-15T04:15:33;28.48;;;18.02;;
10335;SDS011;5213;53.548;9.930;2024-02-15T04:17:58;29.42;;;18.98;;
10335;SDS011;5213;53.548;9.930;2024-02-15T04:20:24;29.40;;;17.65;;
10335;SDS011;5213;53.548;9.930;2024-02-15T04:22:51;34.58;;;18.70;;
10335;SDS011;5213;53.548;9.930;2024-02-15T04:25:17;29.83;;;17.98;;
10335;SDS011;5213;53.548;9.930;2024-02-15T04:27:45;28.98;;;18.27;;
10335;SDS011;5213;53.548;9.930;2024-02-15T04:30:17;30.30;;;19.38;;
10335;SDS011;5213;53.548;9.930;2024-02-15T04:32:43;27.40;;;18.02;;
10335;SDS011;5213;53.548;9.930;2024-02-15T04:35:08;29.30;;;19.13;;
10335;SDS011;5213;53.548;9.930;2024-02-15T04:37:35;31.23;;;19.27;;
10335;SDS011;5213;53.548;9.930;2024-02-15T04:40:02;29.73;;;17.52;;
10335;SDS011;5213;53.548;9.930;2024-02-15T04:42:34;29.55;;;19.77;;
10335;SDS011;5213;53.548;9.930;2024-02-15T04:45:04;29.40;;;18.40;;
10335;SDS011;5213;53.548;9.930;2024-02-15T04:47:33;30.70;;;19.20;;
10335;SDS011;5213;53.548;9.930;2024-02-15T04:49:59;31.48;;;19.85;;
10335;SDS011;5213;53.548;9.930;2024-02-15T04:52:25;31.70;;;19.77;;
10335;SDS011;5213;53.548;9.930;2024-02-15T04:54:51;31.27;;;20.17;;
10335;SDS011;5213;53.548;9.930;2024-02-15T04:57:18;32.22;;;19.75;;
10335;SDS011;5213;53.548;9.930;2024-02-15T04:59:44;33.17;;;20.05;;
10335;SDS011;5213;53.548;9.930;2024-02-15T05:02:12;34.80;;;20.65;;
10335;SDS011;5213;53.548;9.930;2024-02-15T05:04:38;30.35;;;19.05;;
10335;SDS011;5213;53.548;9.930;2024-02-15T05:07:07;33.58;;;20.33;;
10335;SDS011;5213;53.548;9.930;2024-02-15T05:09:33;30.88;;;19.67;;
10335;SDS011;5213;53.548;9.930;2024-02-15T05:12:01;32.25;;;19.98;;
10335;SDS011;5213;53.548;9.930;2024-02-15T05:14:30;31.63;;;20.38;;
10335;SDS011;5213;53.548;9.930;2024-02-15T05:16:56;29.90;;;18.88;;
10335;SDS011;5213;53.548;9.930;2024-02-15T05:19:22;31.83;;;20.08;;
10335;SDS011;5213;53.548;9.930;2024-02-15T05:21:48;33.67;;;20.25;;
10335;SDS011;5213;53.548;9.930;2024-02-15T05:24:14;31.75;;;20.13;;
10335;SDS011;5213;53.548;9.930;2024-02-15T05:26:43;32.25;;;19.83;;
10335;SDS011;5213;53.548;9.930;2024-02-15T05:29:13;30.63;;;19.50;;
10335;SDS011;5213;53.548;9.930;2024-02-15T05:31:39;32.03;;;19.60;;
10335;SDS011;5213;53.548;9.930;2024-02-15T05:34:06;31.70;;;20.63;;
10335;SDS011;5213;53.548;9.930;2024-02-15T05:36:36;33.88;;;19.65;;
10335;SDS011;5213;53.548;9.930;2024-02-15T05:39:03;31.05;;;18.77;;
10335;SDS011;5213;53.548;9.930;2024-02-15T05:41:29;31.63;;;20.08;;
10335;SDS011;5213;53.548;9.930;2024-02-15T05:43:54;31.88;;;19.30;;
10335;SDS011;5213;53.548;9.930;2024-02-15T05:46:22;33.80;;;20.25;;
10335;SDS011;5213;53.548;9.930;2024-02-15T05:48:48;33.08;;;19.50;;
10335;SDS011;5213;53.548;9.930;2024-02-15T05:51:14;30.75;;;19.58;;
10335;SDS011;5213;53.548;9.930;2024-02-15T05:53:40;31.75;;;19.88;;
10335;SDS011;5213;53.548;9.930;2024-02-15T05:56:07;31.67;;;20.27;;
10335;SDS011;5213;53.548;9.930;2024-02-15T05:58:34;32.70;;;19.80;;
10335;SDS011;5213;53.548;9.930;2024-02-15T06:01:00;33.97;;;20.67;;
10335;SDS011;5213;53.548;9.930;2024-02-15T06:03:30;36.20;;;20.15;;
10335;SDS011;5213;53.548;9.930;2024-02-15T06:05:59;33.08;;;20.02;;
10335;SDS011;5213;53.548;9.930;2024-02-15T06:08:30;30.08;;;19.17;;
10335;SDS011;5213;53.548;9.930;2024-02-15T06:10:55;32.60;;;19.10;;
10335;SDS011;5213;53.548;9.930;2024-02-15T06:13:21;30.90;;;19.55;;
10335;SDS011;5213;53.548;9.930;2024-02-15T06:15:48;31.20;;;19.88;;
10335;SDS011;5213;53.548;9.930;2024-02-15T06:18:28;32.15;;;19.10;;
10335;SDS011;5213;53.548;9.930;2024-02-15T06:20:54;32.85;;;19.27;;
10335;SDS011;5213;53.548;9.930;2024-02-15T06:23:24;31.60;;;19.45;;
10335;SDS011;5213;53.548;9.930;2024-02-15T06:25:52;31.20;;;18.90;;
10335;SDS011;5213;53.548;9.930;2024-02-15T06:28:19;34.63;;;19.98;;
10335;SDS011;5213;53.548;9.930;2024-02-15T06:31:10;35.92;;;20.05;;
10335;SDS011;5213;53.548;9.930;2024-02-15T06:33:55;34.17;;;19.40;;
10335;SDS011;5213;53.548;9.930;2024-02-15T06:36:40;33.92;;;19.38;;
10335;SDS011;5213;53.548;9.930;2024-02-15T06:39:36;37.17;;;20.02;;
10335;SDS011;5213;53.548;9.930;2024-02-15T06:42:11;37.70;;;20.38;;
10335;SDS011;5213;53.548;9.930;2024-02-15T06:44:40;39.85;;;20.13;;
10335;SDS011;5213;53.548;9.930;2024-02-15T06:47:06;39.95;;;20.75;;
10335;SDS011;5213;53.548;9.930;2024-02-15T06:49:34;39.67;;;21.02;;
10335;SDS011;5213;53.548;9.930;2024-02-15T06:52:00;39.92;;;20.65;;
10335;SDS011;5213;53.548;9.930;2024-02-15T06:54:27;34.83;;;19.95;;
10335;SDS011;5213;53.548;9.930;2024-02-15T06:56:53;39.47;;;20.52;;
10335;SDS011;5213;53.548;9.930;2024-02-15T06:59:19;36.78;;;20.58;;
10335;SDS011;5213;53.548;9.930;2024-02-15T07:01:47;37.15;;;20.73;;
10335;SDS011;5213;53.548;9.930;2024-02-15T07:04:14;34.25;;;18.88;;
10335;SDS011;5213;53.548;9.930;2024-02-15T07:06:39;37.53;;;20.50;;
10335;SDS011;5213;53.548;9.930;2024-02-15T07:09:05;33.35;;;18.75;;
10335;SDS011;5213;53.548;9.930;2024-02-15T07:11:34;32.92;;;18.98;;
10335;SDS011;5213;53.548;9.930;2024-02-15T07:14:01;31.02;;;19.05;;
10335;SDS011;5213;53.548;9.930;2024-02-15T07:16:27;35.38;;;19.50;;
10335;SDS011;5213;53.548;9.930;2024-02-15T07:18:52;34.08;;;19.25;;
10335;SDS011;5213;53.548;9.930;2024-02-15T07:21:19;37.03;;;20.20;;
10335;SDS011;5213;53.548;9.930;2024-02-15T07:23:50;33.10;;;18.48;;
10335;SDS011;5213;53.548;9.930;2024-02-15T07:26:16;33.65;;;19.92;;
10335;SDS011;5213;53.548;9.930;2024-02-15T07:28:45;34.53;;;19.33;;
10335;SDS011;5213;53.548;9.930;2024-02-15T07:31:11;32.65;;;19.15;;
10335;SDS011;5213;53.548;9.930;2024-02-15T07:33:37;32.97;;;19.92;;
10335;SDS011;5213;53.548;9.930;2024-02-15T07:36:03;30.92;;;19.45;;
10335;SDS011;5213;53.548;9.930;2024-02-15T07:38:29;28.70;;;18.65;;
10335;SDS011;5213;53.548;9.930;2024-02-15T07:40:59;30.55;;;18.40;;
10335;SDS011;5213;53.548;9.930;2024-02-15T07:43:25;29.60;;;18.52;;
10335;SDS011;5213;53.548;9.930;2024-02-15T07:45:51;27.98;;;18.35;;
10335;SDS011;5213;53.548;9.930;2024-02-15T07:48:17;31.95;;;18.58;;
10335;SDS011;5213;53.548;9.930;2024-02-15T07:50:43;27.58;;;17.83;;
10335;SDS011;5213;53.548;9.930;2024-02-15T07:53:09;27.65;;;17.15;;
10335;SDS011;5213;53.548;9.930;2024-02-15T07:55:36;25.98;;;17.10;;
10335;SDS011;5213;53.548;9.930;2024-02-15T07:58:03;29.42;;;16.92;;
10335;SDS011;5213;53.548;9.930;2024-02-15T08:00:29;26.40;;;17.23;;
10335;SDS011;5213;53.548;9.930;2024-02-15T08:02:55;26.67;;;16.27;;
10335;SDS011;5213;53.548;9.930;2024-02-15T08:05:22;26.42;;;17.05;;
10335;SDS011;5213;53.548;9.930;2024-02-15T08:07:48;25.83;;;16.77;;
10335;SDS011;5213;53.548;9.930;2024-02-15T08:10:14;25.08;;;16.45;;
10335;SDS011;5213;53.548;9.930;2024-02-15T08:12:44;25.05;;;15.73;;
10335;SDS011;5213;53.548;9.930;2024-02-15T08:15:10;25.95;;;16.05;;
10335;SDS011;5213;53.548;9.930;2024-02-15T08:17:43;23.25;;;15.73;;
10335;SDS011;5213;53.548;9.930;2024-02-15T08:20:12;23.00;;;15.82;;
10335;SDS011;5213;53.548;9.930;2024-02-15T08:22:39;22.33;;;14.70;;
10335;SDS011;5213;53.548;9.930;2024-02-15T08:25:11;21.33;;;14.98;;
10335;SDS011;5213;53.548;9.930;2024-02-15T08:30:11;18.67;;;13.25;;
10335;SDS011;5213;53.548;9.930;2024-02-15T08:32:41;18.88;;;13.15;;
10335;SDS011;5213;53.548;9.930;2024-02-15T08:35:13;17.02;;;13.15;;
10335;SDS011;5213;53.548;9.930;2024-02-15T08:37:39;14.90;;;11.18;;
10335;SDS011;5213;53.548;9.930;2024-02-15T08:40:07;14.30;;;11.23;;
10335;SDS011;5213;53.548;9.930;2024-02-15T08:42:43;15.52;;;11.93;;
10335;SDS011;5213;53.548;9.930;2024-02-15T08:45:11;12.52;;;10.38;;
10335;SDS011;5213;53.548;9.930;2024-02-15T08:47:41;13.90;;;10.32;;
10335;SDS011;5213;53.548;9.930;2024-02-15T08:50:07;12.05;;;10.23;;
10335;SDS011;5213;53.548;9.930;2024-02-15T08:52:35;12.10;;;10.10;;
10335;SDS011;5213;53.548;9.930;2024-02-15T08:55:07;13.05;;;9.90;;
10335;SDS011;5213;53.548;9.930;2024-02-15T08:57:39;11.00;;;8.95;;
10335;SDS011;5213;53.548;9.930;2024-02-15T09:00:09;11.48;;;8.68;;
10335;SDS011;5213;53.548;9.930;2024-02-15T09:02:43;11.30;;;9.20;;
10335;SDS011;5213;53.548;9.930;2024-02-15T09:05:09;11.05;;;8.38;;
10335;SDS011;5213;53.548;9.930;2024-02-15T09:07:34;9.68;;;8.52;;
10335;SDS011;5213;53.548;9.930;2024-02-15T09:10:01;10.32;;;8.68;;
10335;SDS011;5213;53.548;9.930;2024-02-15T09:12:28;14.00;;;9.02;;
10335;SDS011;5213;53.548;9.930;2024-02-15T09:14:53;11.40;;;9.57;;
10335;SDS011;5213;53.548;9.930;2024-02-15T09:17:19;11.73;;;9.45;;
10335;SDS011;5213;53.548;9.930;2024-02-15T09:19:48;10.93;;;9.18;;
10335;SDS011;5213;53.548;9.930;2024-02-15T09:22:16;11.88;;;9.15;;
10335;SDS011;5213;53.548;9.930;2024-02-15T09:24:42;11.25;;;9.68;;
10335;SDS011;5213;53.548;9.930;2024-02-15T09:27:07;13.27;;;9.68;;
10335;SDS011;5213;53.548;9.930;2024-02-15T09:29:34;13.00;;;10.30;;
10335;SDS011;5213;53.548;9.930;2024-02-15T09:32:00;12.70;;;10.07;;
10335;SDS011;5213;53.548;9.930;2024-02-15T09:34:28;11.32;;;10.05;;
10335;SDS011;5213;53.548;9.930;2024-02-15T09:36:54;12.05;;;9.48;;
10335;SDS011;5213;53.548;9.930;2024-02-15T09:39:21;11.70;;;9.90;;
10335;SDS011;5213;53.548;9.930;2024-02-15T09:41:48;12.38;;;10.40;;
10335;SDS011;5213;53.548;9.930;2024-02-15T09:44:20;13.10;;;11.23;;
10335;SDS011;5213;53.548;9.930;2024-02-15T09:46:46;14.82;;;11.23;;
10335;SDS011;5213;53.548;9.930;2024-02-15T09:49:21;13.15;;;10.30;;
10335;SDS011;5213;53.548;9.930;2024-02-15T09:51:47;14.25;;;11.70;;
10335;SDS011;5213;53.548;9.930;2024-02-15T09:54:13;13.10;;;10.65;;
10335;SDS011;5213;53.548;9.930;2024-02-15T09:56:47;12.25;;;10.85;;
10335;SDS011;5213;53.548;9.930;2024-02-15T09:59:13;17.55;;;12.07;;
10335;SDS011;5213;53.548;9.930;2024-02-15T10:01:40;17.27;;;12.20;;
10335;SDS011;5213;53.548;9.930;2024-02-15T10:04:06;13.88;;;11.65;;
10335;SDS011;5213;53.548;9.930;2024-02-15T10:06:32;15.30;;;11.93;;
10335;SDS011;5213;53.548;9.930;2024-02-15T10:09:22;17.10;;;12.30;;
10335;SDS011;5213;53.548;9.930;2024-02-15T10:11:55;16.95;;;12.93;;
10335;SDS011;5213;53.548;9.930;2024-02-15T10:14:27;16.35;;;13.43;;
10335;SDS011;5213;53.548;9.930;2024-02-15T10:16:54;16.77;;;12.82;;
10335;SDS011;5213;53.548;9.930;2024-02-15T10:19:21;19.48;;;12.70;;
10335;SDS011;5213;53.548;9.930;2024-02-15T10:21:51;16.75;;;13.32;;
10335;SDS011;5213;53.548;9.930;2024-02-15T10:24:20;19.50;;;14.10;;
10335;SDS011;5213;53.548;9.930;2024-02-15T10:26:50;15.10;;;13.57;;
10335;SDS011;5213;53.548;9.930;2024-02-15T10:29:16;19.42;;;14.10;;
10335;SDS011;5213;53.548;9.930;2024-02-15T10:31:54;18.25;;;14.23;;
10335;SDS011;5213;53.548;9.930;2024-02-15T10:34:21;19.77;;;15.23;;
10335;SDS011;5213;53.548;9.930;2024-02-15T10:36:48;19.98;;;14.38;;
10335;SDS011;5213;53.548;9.930;2024-02-15T10:39:16;19.80;;;14.77;;
10335;SDS011;5213;53.548;9.930;2024-02-15T10:41:44;16.42;;;13.85;;
10335;SDS011;5213;53.548;9.930;2024-02-15T10:46:48;17.17;;;15.38;;
10335;SDS011;5213;53.548;9.930;2024-02-15T10:49:21;17.10;;;14.82;;
10335;SDS011;5213;53.548;9.930;2024-02-15T10:51:50;18.15;;;15.05;;
10335;SDS011;5213;53.548;9.930;2024-02-15T10:57:05;19.60;;;15.63;;
10335;SDS011;5213;53.548;9.930;2024-02-15T10:59:34;19.60;;;16.25;;
10335;SDS011;5213;53.548;9.930;2024-02-15T11:02:03;19.10;;;16.10;;
10335;SDS011;5213;53.548;9.930;2024-02-15T11:04:48;21.50;;;16.77;;
10335;SDS011;5213;53.548;9.930;2024-02-15T11:07:22;23.50;;;16.95;;
10335;SDS011;5213;53.548;9.930;2024-02-15T11:09:50;19.17;;;15.95;;
10335;SDS011;5213;53.548;9.930;2024-02-15T11:12:16;23.67;;;17.10;;
10335;SDS011;5213;53.548;9.930;2024-02-15T11:14:46;22.10;;;17.20;;
10335;SDS011;5213;53.548;9.930;2024-02-15T11:17:12;18.83;;;16.48;;
10335;SDS011;5213;53.548;9.930;2024-02-15T11:20:10;22.42;;;17.73;;
10335;SDS011;5213;53.548;9.930;2024-02-15T11:23:05;23.40;;;17.98;;
10335;SDS011;5213;53.548;9.930;2024-02-15T11:25:34;24.90;;;17.95;;
10335;SDS011;5213;53.548;9.930;2024-02-15T11:30:47;22.92;;;17.70;;
10335;SDS011;5213;53.548;9.930;2024-02-15T11:36:10;25.30;;;19.27;;
10335;SDS011;5213;53.548;9.930;2024-02-15T11:38:37;27.73;;;20.23;;
10335;SDS011;5213;53.548;9.930;2024-02-15T11:41:06;26.88;;;20.58;;
10335;SDS011;5213;53.548;9.930;2024-02-15T11:48:43;27.27;;;20.98;;
10335;SDS011;5213;53.548;9.930;2024-02-15T11:51:09;27.83;;;20.75;;
10335;SDS011;5213;53.548;9.930;2024-02-15T11:53:36;24.65;;;20.27;;
10335;SDS011;5213;53.548;9.930;2024-02-15T11:56:02;26.85;;;20.00;;
10335;SDS011;5213;53.548;9.930;2024-02-15T11:58:34;25.05;;;20.33;;
10335;SDS011;5213;53.548;9.930;2024-02-15T12:01:17;26.17;;;19.35;;
10335;SDS011;5213;53.548;9.930;2024-02-15T12:04:02;23.45;;;19.33;;
10335;SDS011;5213;53.548;9.930;2024-02-15T12:06:47;26.42;;;20.10;;
10335;SDS011;5213;53.548;9.930;2024-02-15T12:09:31;25.70;;;21.00;;
10335;SDS011;5213;53.548;9.930;2024-02-15T12:12:15;25.30;;;18.85;;
10335;SDS011;5213;53.548;9.930;2024-02-15T12:15:02;21.25;;;16.92;;
10335;SDS011;5213;53.548;9.930;2024-02-15T12:17:47;21.15;;;16.63;;
10335;SDS011;5213;53.548;9.930;2024-02-15T12:20:31;21.05;;;17.33;;
10335;SDS011;5213;53.548;9.930;2024-02-15T12:22:57;22.65;;;18.40;;
10335;SDS011;5213;53.548;9.930;2024-02-15T12:25:26;21.80;;;15.95;;
10335;SDS011;5213;53.548;9.930;2024-02-15T12:27:52;17.60;;;15.70;;
10335;SDS011;5213;53.548;9.930;2024-02-15T12:30:19;15.05;;;13.45;;
10335;SDS011;5213;53.548;9.930;2024-02-15T12:32:46;17.13;;;14.63;;
10335;SDS011;5213;53.548;9.930;2024-02-15T12:35:16;16.95;;;13.95;;
10335;SDS011;5213;53.548;9.930;2024-02-15T12:37:46;15.50;;;13.02;;
10335;SDS011;5213;53.548;9.930;2024-02-15T12:40:16;14.90;;;13.30;;
10335;SDS011;5213;53.548;9.930;2024-02-15T12:42:46;13.65;;;11.70;;
10335;SDS011;5213;53.548;9.930;2024-02-15T12:45:21;12.40;;;11.10;;
10335;SDS011;5213;53.548;9.930;2024-02-15T12:47:50;11.38;;;9.75;;
10335;SDS011;5213;53.548;9.930;2024-02-15T12:50:17;11.27;;;10.07;;
10335;SDS011;5213;53.548;9.930;2024-02-15T12:52:48;9.60;;;8.70;;
10335;SDS011;5213;53.548;9.930;2024-02-15T12:57:47;10.35;;;9.35;;
10335;SDS011;5213;53.548;9.930;2024-02-15T13:00:24;9.55;;;8.68;;
10335;SDS011;5213;53.548;9.930;2024-02-15T13:02:56;9.75;;;8.95;;
10335;SDS011;5213;53.548;9.930;2024-02-15T13:05:24;8.70;;;7.90;;
10335;SDS011;5213;53.548;9.930;2024-02-15T13:07:51;8.93;;;7.53;;
10335;SDS011;5213;53.548;9.930;2024-02-15T13:10:20;8.65;;;7.85;;
10335;SDS011;5213;53.548;9.930;2024-02-15T13:12:46;8.63;;;7.90;;
10335;SDS011;5213;53.548;9.930;2024-02-15T13:15:12;9.20;;;8.30;;
10335;SDS011;5213;53.548;9.930;2024-02-15T13:17:40;9.07;;;8.15;;
10335;SDS011;5213;53.548;9.930;2024-02-15T13:20:29;8.57;;;7.78;;
10335;SDS011;5213;53.548;9.930;2024-02-15T13:22:57;9.13;;;8.23;;
10335;SDS011;5213;53.548;9.930;2024-02-15T13:25:26;8.60;;;7.78;;
10335;SDS011;5213;53.548;9.930;2024-02-15T13:27:53;9.25;;;8.25;;
10335;SDS011;5213;53.548;9.930;2024-02-15T13:30:18;9.20;;;8.10;;
10335;SDS011;5213;53.548;9.930;2024-02-15T13:32:48;8.85;;;7.95;;
10335;SDS011;5213;53.548;9.930;2024-02-15T13:35:17;9.43;;;7.75;;
10335;SDS011;5213;53.548;9.930;2024-02-15T13:37:48;8.73;;;7.82;;
10335;SDS011;5213;53.548;9.930;2024-02-15T13:40:17;9.13;;;8.23;;
10335;SDS011;5213;53.548;9.930;2024-02-15T13:42:45;9.85;;;8.40;;
10335;SDS011;5213;53.548;9.930;2024-02-15T13:45:17;9.45;;;8.45;;
10335;SDS011;5213;53.548;9.930;2024-02-15T13:47:47;9.50;;;8.60;;
10335;SDS011;5213;53.548;9.930;2024-02-15T13:50:14;12.05;;;9.40;;
10335;SDS011;5213;53.548;9.930;2024-02-15T13:52:40;10.07;;;9.05;;
10335;SDS011;5213;53.548;9.930;2024-02-15T13:55:10;10.93;;;9.73;;
10335;SDS011;5213;53.548;9.930;2024-02-15T13:57:37;10.95;;;8.77;;
10335;SDS011;5213;53.548;9.930;2024-02-15T14:00:04;9.55;;;8.57;;
10335;SDS011;5213;53.548;9.930;2024-02-15T14:02:31;11.35;;;9.05;;
10335;SDS011;5213;53.548;9.930;2024-02-15T14:04:57;12.25;;;9.15;;
10335;SDS011;5213;53.548;9.930;2024-02-15T14:07:22;9.52;;;8.48;;
10335;SDS011;5213;53.548;9.930;2024-02-15T14:09:48;9.23;;;8.23;;
10335;SDS011;5213;53.548;9.930;2024-02-15T14:12:13;10.38;;;7.90;;
10335;SDS011;5213;53.548;9.930;2024-02-15T14:14:40;11.20;;;9.13;;
10335;SDS011;5213;53.548;9.930;2024-02-15T14:17:06;10.32;;;7.88;;
10335;SDS011;5213;53.548;9.930;2024-02-15T14:19:31;10.45;;;8.15;;
10335;SDS011;5213;53.548;9.930;2024-02-15T14:21:57;9.27;;;8.05;;
10335;SDS011;5213;53.548;9.930;2024-02-15T14:24:23;9.25;;;8.15;;
10335;SDS011;5213;53.548;9.930;2024-02-15T14:26:48;9.45;;;8.48;;
10335;SDS011;5213;53.548;9.930;2024-02-15T14:29:14;8.88;;;7.97;;
10335;SDS011;5213;53.548;9.930;2024-02-15T14:31:40;9.38;;;8.48;;
10335;SDS011;5213;53.548;9.930;2024-02-15T14:34:24;9.52;;;7.63;;
10335;SDS011;5213;53.548;9.930;2024-02-15T14:36:51;11.35;;;8.68;;
10335;SDS011;5213;53.548;9.930;2024-02-15T14:39:17;8.95;;;7.65;;
10335;SDS011;5213;53.548;9.930;2024-02-15T14:41:44;8.50;;;7.60;;
10335;SDS011;5213;53.548;9.930;2024-02-15T14:44:10;8.82;;;7.93;;
10335;SDS011;5213;53.548;9.930;2024-02-15T14:46:37;10.93;;;8.57;;
10335;SDS011;5213;53.548;9.930;2024-02-15T14:49:03;9.70;;;8.70;;
10335;SDS011;5213;53.548;9.930;2024-02-15T14:51:29;9.23;;;8.23;;
10335;SDS011;5213;53.548;9.930;2024-02-15T14:53:56;9.90;;;8.98;;
10335;SDS011;5213;53.548;9.930;2024-02-15T14:56:23;10.18;;;8.95;;
10335;SDS011;5213;53.548;9.930;2024-02-15T14:58:49;9.85;;;8.85;;
10335;SDS011;5213;53.548;9.930;2024-02-15T15:01:14;9.80;;;8.68;;
10335;SDS011;5213;53.548;9.930;2024-02-15T15:03:40;10.88;;;9.75;;
10335;SDS011;5213;53.548;9.930;2024-02-15T15:06:08;9.38;;;8.40;;